createdAt,value
2019-02-02T00:00:46.535Z,-0.34
2019-02-02T00:03:49.914Z,-0.33
2019-02-02T00:06:42.338Z,-0.47
2019-02-02T00:09:38.137Z,-0.39
2019-02-02T00:12:36.700Z,-0.40
2019-02-02T00:15:22.801Z,-0.25
2019-02-02T00:18:15.606Z,-0.30
2019-02-02T00:21:05.276Z,-0.26
2019-02-02T00:23:59.402Z,-0.21
2019-02-02T00:26:51.782Z,-0.13
2019-02-02T00:29:40.431Z,-0.16
2019-02-02T00:32:41.207Z,-0.03
2019-02-02T00:35:31.530Z,-0.14
2019-02-02T00:38:28.607Z,-0.21
2019-02-02T00:41:17.055Z,-0.18
2019-02-02T00:44:10.126Z,-0.19
2019-02-02T00:46:59.486Z,-0.14
2019-02-02T00:49:59.235Z,-0.22
2019-02-02T00:52:54.937Z,-0.49
2019-02-02T00:55:43.444Z,-0.75
2019-02-02T00:58:35.784Z,-0.96
2019-02-02T01:01:35.524Z,-0.71
2019-02-02T01:04:25.387Z,-0.60
2019-02-02T01:07:16.436Z,-1.02
2019-02-02T01:10:11.253Z,-1.23
2019-02-02T01:13:00.806Z,-0.88
2019-02-02T01:15:53.949Z,-1.11
2019-02-02T01:18:50.567Z,-0.93
2019-02-02T01:21:43.282Z,-1.01
2019-02-02T01:24:34.685Z,-0.79
2019-02-02T01:27:26.878Z,-0.58
2019-02-02T01:30:21.790Z,-0.56
2019-02-02T01:33:14.281Z,-0.50
2019-02-02T01:36:06.674Z,-0.64
2019-02-02T01:39:01.143Z,-0.47
2019-02-02T01:41:59.567Z,-0.50
2019-02-02T01:44:50.404Z,-0.46
2019-02-02T01:47:45.383Z,-0.26
2019-02-02T01:50:47.577Z,-0.25
2019-02-02T01:53:34.204Z,-0.28
2019-02-02T01:56:23.508Z,-0.82
2019-02-02T01:59:15.867Z,-0.79
2019-02-02T02:02:07.394Z,-1.31
2019-02-02T02:05:02.613Z,-1.20
2019-02-02T02:07:57.850Z,-0.96
2019-02-02T02:10:50.010Z,-0.84
2019-02-02T02:13:42.021Z,-0.91
2019-02-02T02:16:32.863Z,-0.84
2019-02-02T02:19:23.849Z,-0.78
2019-02-02T02:22:20.912Z,-1.00
2019-02-02T02:25:20.030Z,-0.84
2019-02-02T02:28:27.766Z,-1.05
2019-02-02T02:31:11.019Z,-1.11
2019-02-02T02:34:12.171Z,-1.20
2019-02-02T02:37:10.108Z,-0.98
2019-02-02T02:40:10.044Z,-0.93
2019-02-02T02:42:59.703Z,-0.90
2019-02-02T02:45:51.276Z,-0.93
2019-02-02T02:48:53.594Z,-1.01
2019-02-02T02:51:43.701Z,-0.89
2019-02-02T02:54:38.339Z,-1.09
2019-02-02T02:57:33.925Z,-1.02
2019-02-02T03:00:37.307Z,-1.22
2019-02-02T03:03:26.672Z,-1.09
2019-02-02T03:06:29.276Z,-1.17
2019-02-02T03:09:20.199Z,-1.26
2019-02-02T03:12:17.674Z,-1.30
2019-02-02T03:15:08.998Z,-1.10
2019-02-02T03:18:02.446Z,-0.89
2019-02-02T03:20:56.321Z,-1.02
2019-02-02T03:23:54.359Z,-0.93
2019-02-02T03:26:48.410Z,-0.84
2019-02-02T03:29:40.930Z,-0.77
2019-02-02T03:32:47.349Z,-0.64
2019-02-02T03:35:37.103Z,-0.66
2019-02-02T03:38:27.630Z,-0.55
2019-02-02T03:41:23.905Z,-0.56
2019-02-02T03:44:17.043Z,-0.59
2019-02-02T03:47:11.361Z,-0.57
2019-02-02T03:50:06.512Z,-0.54
2019-02-02T03:52:58.369Z,-0.75
2019-02-02T03:55:52.263Z,-0.83
2019-02-02T03:58:49.939Z,-0.91
2019-02-02T04:01:45.737Z,-0.71
2019-02-02T04:04:41.696Z,-0.70
2019-02-02T04:07:30.998Z,-0.69
2019-02-02T04:10:20.474Z,-0.61
2019-02-02T04:13:11.846Z,-0.67
2019-02-02T04:16:02.843Z,-0.79
2019-02-02T04:19:00.898Z,-0.92
2019-02-02T04:22:11.046Z,-1.53
2019-02-02T04:25:01.521Z,-1.72
2019-02-02T04:27:55.465Z,-2.00
2019-02-02T04:30:51.002Z,-1.72
2019-02-02T04:33:44.557Z,-1.76
2019-02-02T04:36:43.255Z,-1.76
2019-02-02T04:39:35.048Z,-1.43
2019-02-02T04:42:30.363Z,-1.22
2019-02-02T04:45:24.118Z,-1.14
2019-02-02T04:48:15.047Z,-1.49
2019-02-02T04:51:13.776Z,-1.32
2019-02-02T04:54:01.674Z,-1.31
2019-02-02T04:56:55.636Z,-1.39
2019-02-02T04:59:46.432Z,-1.16
2019-02-02T05:02:40.815Z,-1.03
2019-02-02T05:05:34.720Z,-1.07
2019-02-02T05:08:24.136Z,-1.06
2019-02-02T05:11:17.146Z,-1.32
2019-02-02T05:14:07.607Z,-1.23
2019-02-02T05:17:05.811Z,-1.19
2019-02-02T05:19:56.694Z,-1.17
2019-02-02T05:22:52.367Z,-1.01
2019-02-02T05:25:41.723Z,-1.03
2019-02-02T05:28:45.616Z,-0.95
2019-02-02T05:31:41.250Z,-1.13
2019-02-02T05:34:38.205Z,-1.29
2019-02-02T05:37:37.075Z,-1.58
2019-02-02T05:40:27.379Z,-1.65
2019-02-02T05:43:21.077Z,-1.63
2019-02-02T05:46:17.317Z,-1.56
2019-02-02T05:49:06.660Z,-1.31
2019-02-02T05:51:59.436Z,-1.02
2019-02-02T05:54:49.562Z,-0.92
2019-02-02T05:57:43.927Z,-1.16
2019-02-02T06:00:54.121Z,-1.06
2019-02-02T06:03:54.903Z,-0.97
2019-02-02T06:06:46.281Z,-0.75
2019-02-02T06:09:36.553Z,-0.10
2019-02-02T06:12:31.967Z,0.34
2019-02-02T06:15:29.107Z,0.04
2019-02-02T06:18:21.525Z,-0.10
2019-02-02T06:21:14.629Z,-0.22
2019-02-02T06:24:06.940Z,-0.34
2019-02-02T06:27:03.258Z,-0.22
2019-02-02T06:30:04.594Z,-0.28
2019-02-02T06:32:52.262Z,-0.48
2019-02-02T06:36:03.947Z,-0.23
2019-02-02T06:38:53.519Z,-0.18
2019-02-02T06:41:45.862Z,-0.69
2019-02-02T06:44:39.653Z,-0.78
2019-02-02T06:47:31.011Z,-0.90
2019-02-02T06:50:27.517Z,-0.79
2019-02-02T06:53:22.392Z,-0.97
2019-02-02T06:56:14.027Z,-0.80
2019-02-02T06:59:10.207Z,-0.85
2019-02-02T07:02:04.541Z,-0.72
2019-02-02T07:04:53.324Z,-0.70
2019-02-02T07:07:58.090Z,-0.72
2019-02-02T07:10:47.709Z,-1.17
2019-02-02T07:13:46.745Z,-0.82
2019-02-02T07:16:46.952Z,-0.88
2019-02-02T07:19:43.155Z,-0.56
2019-02-02T07:22:35.076Z,-0.29
2019-02-02T07:25:28.436Z,-0.23
2019-02-02T07:28:29.168Z,-0.64
2019-02-02T07:31:22.011Z,-0.25
2019-02-02T07:34:19.742Z,-0.38
2019-02-02T07:40:23.217Z,0.05
2019-02-02T07:43:13.447Z,0.46
2019-02-02T07:46:14.756Z,0.37
2019-02-02T07:49:05.549Z,0.29
2019-02-02T07:51:55.905Z,0.64
2019-02-02T07:54:45.541Z,0.97
2019-02-02T07:57:45.141Z,1.19
2019-02-02T08:00:41.800Z,1.12
2019-02-02T08:03:37.337Z,1.47
2019-02-02T08:06:29.137Z,1.44
2019-02-02T08:09:19.949Z,1.69
2019-02-02T08:12:12.576Z,1.99
2019-02-02T08:15:04.533Z,2.06
2019-02-02T08:18:02.069Z,2.07
2019-02-02T08:20:53.223Z,1.48
2019-02-02T08:23:46.922Z,1.42
2019-02-02T08:26:41.625Z,1.90
2019-02-02T08:29:34.341Z,2.43
2019-02-02T08:32:27.135Z,2.46
2019-02-02T08:35:18.079Z,2.44
2019-02-02T08:38:09.984Z,2.03
2019-02-02T08:41:06.246Z,2.14
2019-02-02T08:44:06.358Z,1.44
2019-02-02T08:46:56.355Z,0.89
2019-02-02T08:49:49.164Z,1.17
2019-02-02T08:52:41.038Z,1.23
2019-02-02T08:55:32.556Z,1.27
2019-02-02T08:58:25.730Z,1.37
2019-02-02T09:01:17.014Z,1.72
2019-02-02T09:04:06.479Z,1.93
2019-02-02T09:06:56.231Z,2.10
2019-02-02T09:09:45.669Z,2.21
2019-02-02T09:12:39.569Z,1.65
2019-02-02T09:15:30.352Z,1.76
2019-02-02T09:18:19.713Z,1.73
2019-02-02T09:21:09.109Z,1.98
2019-02-02T09:23:58.638Z,1.70
2019-02-02T09:26:48.481Z,1.50
2019-02-02T09:29:38.196Z,1.85
2019-02-02T09:32:30.872Z,2.20
2019-02-02T09:35:20.187Z,2.59
2019-02-02T09:38:12.011Z,2.88
2019-02-02T09:41:01.090Z,3.12
2019-02-02T09:43:50.595Z,3.29
2019-02-02T09:46:40.046Z,3.49
2019-02-02T09:49:29.406Z,3.56
2019-02-02T09:52:19.588Z,3.15
2019-02-02T09:55:11.750Z,3.40
2019-02-02T09:58:04.301Z,3.80
2019-02-02T10:00:53.840Z,4.06
2019-02-02T10:03:43.354Z,4.43
2019-02-02T10:06:32.979Z,4.27
2019-02-02T10:09:22.643Z,4.61
2019-02-02T10:12:11.748Z,4.45
2019-02-02T10:15:01.431Z,4.56
2019-02-02T10:17:50.828Z,4.33
2019-02-02T10:20:39.906Z,4.58
2019-02-02T10:23:29.706Z,4.61
2019-02-02T10:26:19.525Z,4.46
2019-02-02T10:29:09.302Z,4.55
2019-02-02T10:31:59.040Z,4.69
2019-02-02T10:34:57.015Z,5.13
2019-02-02T10:37:46.904Z,5.21
2019-02-02T10:40:36.487Z,5.37
2019-02-02T10:43:25.963Z,5.58
2019-02-02T10:46:17.041Z,5.48
2019-02-02T10:49:08.328Z,5.73
2019-02-02T10:51:57.767Z,5.59
2019-02-02T10:54:46.974Z,5.28
2019-02-02T10:57:36.679Z,4.89
2019-02-02T11:00:28.300Z,4.64
2019-02-02T11:03:17.860Z,4.82
2019-02-02T11:06:08.557Z,4.56
2019-02-02T11:08:58.221Z,4.74
2019-02-02T11:11:47.576Z,4.90
2019-02-02T11:14:37.234Z,4.86
2019-02-02T11:17:26.795Z,4.52
2019-02-02T11:20:18.406Z,4.60
2019-02-02T11:23:08.458Z,4.51
2019-02-02T11:25:58.403Z,4.86
2019-02-02T11:28:48.206Z,5.49
2019-02-02T11:31:37.699Z,5.88
2019-02-02T11:34:27.180Z,6.35
2019-02-02T11:37:16.872Z,6.08
2019-02-02T11:40:10.040Z,5.98
2019-02-02T11:42:58.622Z,5.52
2019-02-02T11:45:48.094Z,5.47
2019-02-02T11:48:37.857Z,5.18
2019-02-02T11:51:27.498Z,5.24
2019-02-02T11:54:16.894Z,5.15
2019-02-02T11:57:06.638Z,5.49
2019-02-02T12:00:03.553Z,5.28
2019-02-02T12:02:55.190Z,5.60
2019-02-02T12:05:44.619Z,5.56
2019-02-02T12:08:34.110Z,5.64
2019-02-02T12:11:23.580Z,6.10
2019-02-02T12:14:14.275Z,6.61
2019-02-02T12:17:03.671Z,6.78
2019-02-02T12:19:53.328Z,6.45
2019-02-02T12:22:42.576Z,6.05
2019-02-02T12:25:32.132Z,5.85
2019-02-02T12:28:21.515Z,5.37
2019-02-02T12:31:10.998Z,5.88
2019-02-02T12:34:03.209Z,6.31
2019-02-02T12:36:52.965Z,6.25
2019-02-02T12:39:41.933Z,6.22
2019-02-02T12:42:31.284Z,6.27
2019-02-02T12:45:26.410Z,6.17
2019-02-02T12:48:16.365Z,5.99
2019-02-02T12:51:05.603Z,6.20
2019-02-02T12:53:55.856Z,6.12
2019-02-02T12:56:27.570Z,5.18
2019-02-02T12:58:58.577Z,4.58
2019-02-02T13:01:30.062Z,4.75
2019-02-02T13:04:05.196Z,5.44
2019-02-02T13:06:34.923Z,5.86
2019-02-02T13:09:09.369Z,6.05
2019-02-02T13:11:40.378Z,5.60
2019-02-02T13:14:11.732Z,5.85
2019-02-02T13:16:42.765Z,6.08
2019-02-02T13:19:14.123Z,6.21
2019-02-02T13:21:45.374Z,6.39
2019-02-02T13:24:16.358Z,5.56
2019-02-02T13:26:47.356Z,4.59
2019-02-02T13:29:18.477Z,4.72
2019-02-02T13:31:49.486Z,5.11
2019-02-02T13:34:20.497Z,6.11
2019-02-02T13:36:51.558Z,6.75
2019-02-02T13:39:22.554Z,6.39
2019-02-02T13:41:53.612Z,6.58
2019-02-02T13:44:24.660Z,6.47
2019-02-02T13:46:55.657Z,6.18
2019-02-02T13:49:26.741Z,6.01
2019-02-02T13:51:57.875Z,5.83
2019-02-02T13:54:28.985Z,6.13
2019-02-02T13:57:00.150Z,7.08
2019-02-02T13:59:31.177Z,7.98
2019-02-02T14:02:02.184Z,7.89
2019-02-02T14:04:34.268Z,8.15
2019-02-02T14:07:17.444Z,7.92
2019-02-02T14:09:38.461Z,7.84
2019-02-02T14:12:09.493Z,7.51
2019-02-02T14:14:40.538Z,7.57
2019-02-02T14:17:11.541Z,7.03
2019-02-02T14:19:42.532Z,6.89
2019-02-02T14:22:14.118Z,6.90
2019-02-02T14:24:45.191Z,6.88
2019-02-02T14:27:16.224Z,6.89
2019-02-02T14:29:47.343Z,7.23
2019-02-02T14:32:20.736Z,6.82
2019-02-02T14:35:03.683Z,6.71
2019-02-02T14:37:35.137Z,6.66
2019-02-02T14:40:08.019Z,6.72
2019-02-02T14:42:40.972Z,6.43
2019-02-02T14:45:17.349Z,6.06
2019-02-02T14:47:48.484Z,5.74
2019-02-02T14:50:21.229Z,5.87
2019-02-02T14:52:53.019Z,5.46
2019-02-02T14:55:28.924Z,5.64
2019-02-02T14:58:04.488Z,5.15
2019-02-02T15:00:36.609Z,4.97
2019-02-02T15:03:07.778Z,5.05
2019-02-02T15:05:43.094Z,5.10
2019-02-02T15:08:14.196Z,4.74
2019-02-02T15:10:45.317Z,4.52
2019-02-02T15:13:16.589Z,4.52
2019-02-02T15:15:47.949Z,4.52
2019-02-02T15:18:19.231Z,4.49
2019-02-02T15:20:50.628Z,4.25
2019-02-02T15:23:22.070Z,4.55
2019-02-02T15:25:53.612Z,3.82
2019-02-02T15:28:24.666Z,3.60
2019-02-02T15:30:55.953Z,3.65
2019-02-02T15:33:37.530Z,3.43
2019-02-02T15:36:01.153Z,3.74
2019-02-02T15:38:32.439Z,3.88
2019-02-02T15:41:03.574Z,3.83
2019-02-02T15:43:34.881Z,3.65
2019-02-02T15:46:06.193Z,3.64
2019-02-02T15:48:37.552Z,3.19
2019-02-02T15:51:09.080Z,3.16
2019-02-02T15:53:40.391Z,3.14
2019-02-02T15:56:11.594Z,3.10
2019-02-02T15:58:43.050Z,2.91
2019-02-02T16:01:14.667Z,2.97
2019-02-02T16:03:49.626Z,2.79
2019-02-02T16:06:18.924Z,2.68
2019-02-02T16:08:50.150Z,3.04
2019-02-02T16:11:21.663Z,2.94
2019-02-02T16:13:53.013Z,2.72
2019-02-02T16:16:24.411Z,2.85
2019-02-02T16:18:55.556Z,2.53
2019-02-02T16:21:26.899Z,2.16
2019-02-02T16:23:58.016Z,2.07
2019-02-02T16:26:29.254Z,2.44
2019-02-02T16:29:00.630Z,2.07
2019-02-02T16:31:31.838Z,2.00
2019-02-02T16:34:03.087Z,1.87
2019-02-02T16:36:35.566Z,2.20
2019-02-02T16:39:09.475Z,2.18
2019-02-02T16:41:40.990Z,2.02
2019-02-02T16:44:12.737Z,2.00
2019-02-02T16:46:44.253Z,1.91
2019-02-02T16:49:17.182Z,2.00
2019-02-02T16:51:48.870Z,2.04
2019-02-02T16:54:20.511Z,2.13
2019-02-02T16:56:51.898Z,2.11
2019-02-02T16:59:23.174Z,2.03
2019-02-02T17:01:54.697Z,2.65
2019-02-02T17:04:26.306Z,2.55
2019-02-02T17:06:59.317Z,2.72
2019-02-02T17:09:30.904Z,2.97
2019-02-02T17:12:02.416Z,2.47
2019-02-02T17:14:34.078Z,2.31
2019-02-02T17:17:05.974Z,2.33
2019-02-02T17:19:37.542Z,2.28
2019-02-02T17:22:08.748Z,1.77
2019-02-02T17:24:40.552Z,1.43
2019-02-02T17:27:11.923Z,1.49
2019-02-02T17:29:43.289Z,1.60
2019-02-02T17:32:14.503Z,1.42
2019-02-02T17:34:45.646Z,1.25
2019-02-02T17:37:17.856Z,1.47
2019-02-02T17:39:49.029Z,1.36
2019-02-02T17:42:20.240Z,1.31
2019-02-02T17:44:51.549Z,1.42
2019-02-02T17:47:22.825Z,1.56
2019-02-02T17:49:54.069Z,1.50
2019-02-02T17:52:25.354Z,1.50
2019-02-02T17:54:56.442Z,1.54
2019-02-02T17:57:27.562Z,1.60
2019-02-02T17:59:58.811Z,1.62
2019-02-02T18:02:29.928Z,1.55
2019-02-02T18:05:01.075Z,1.50
2019-02-02T18:07:32.256Z,1.62
2019-02-02T18:10:03.396Z,1.68
2019-02-02T18:12:34.576Z,1.64
2019-02-02T18:15:06.818Z,1.76
2019-02-02T18:17:38.047Z,1.41
2019-02-02T18:20:12.001Z,1.32
2019-02-02T18:22:43.483Z,1.24
2019-02-02T18:25:15.128Z,1.36
2019-02-02T18:27:46.398Z,1.18
2019-02-02T18:30:21.524Z,1.29
2019-02-02T18:32:52.753Z,1.41
2019-02-02T18:35:24.077Z,1.49
2019-02-02T18:37:55.290Z,1.32
2019-02-02T18:40:26.611Z,1.32
2019-02-02T18:42:57.833Z,1.37
2019-02-02T18:45:29.279Z,1.54
2019-02-02T18:48:00.521Z,1.52
2019-02-02T18:50:31.723Z,1.54
2019-02-02T18:53:03.033Z,1.30
2019-02-02T18:55:46.967Z,1.22
2019-02-02T18:58:19.839Z,0.95
2019-02-02T19:00:51.395Z,1.07
2019-02-02T19:03:22.858Z,1.11
2019-02-02T19:05:54.153Z,1.04
2019-02-02T19:08:25.370Z,1.27
2019-02-02T19:10:56.589Z,1.27
2019-02-02T19:13:27.898Z,1.30
2019-02-02T19:15:59.012Z,1.35
2019-02-02T19:18:30.156Z,1.23
2019-02-02T19:21:01.512Z,1.33
2019-02-02T19:23:32.675Z,1.68
2019-02-02T19:26:05.403Z,1.55
2019-02-02T19:28:39.934Z,1.55
2019-02-02T19:31:09.848Z,1.65
2019-02-02T19:33:41.209Z,1.60
2019-02-02T19:36:12.468Z,1.65
2019-02-02T19:38:43.790Z,1.81
2019-02-02T19:41:14.978Z,1.64
2019-02-02T19:43:46.382Z,1.52
2019-02-02T19:46:17.796Z,1.36
2019-02-02T19:48:49.085Z,1.55
2019-02-02T19:51:20.434Z,1.37
2019-02-02T19:53:51.622Z,1.63
2019-02-02T19:56:22.808Z,1.74
2019-02-02T19:58:54.232Z,1.67
2019-02-02T20:01:25.812Z,1.61
2019-02-02T20:03:57.319Z,1.63
2019-02-02T20:06:28.747Z,1.50
2019-02-02T20:08:59.996Z,1.57
2019-02-02T20:11:31.171Z,1.69
2019-02-02T20:14:02.355Z,1.52
2019-02-02T20:16:33.566Z,1.38
2019-02-02T20:19:05.203Z,1.26
2019-02-02T20:21:39.321Z,1.08
2019-02-02T20:24:10.468Z,1.45
2019-02-02T20:26:42.789Z,1.56
2019-02-02T20:29:13.994Z,1.76
2019-02-02T20:31:47.962Z,1.85
2019-02-02T20:34:19.193Z,2.18
2019-02-02T20:36:50.543Z,2.03
2019-02-02T20:39:21.750Z,2.08
2019-02-02T20:41:52.929Z,1.94
2019-02-02T20:44:24.301Z,1.74
2019-02-02T20:46:55.522Z,1.86
2019-02-02T20:49:26.868Z,1.77
2019-02-02T20:51:59.634Z,1.81
2019-02-02T20:54:30.930Z,1.92
2019-02-02T20:57:02.067Z,2.14
2019-02-02T20:59:52.718Z,2.17
2019-02-02T21:02:42.878Z,1.99
2019-02-02T21:05:32.366Z,1.89
2019-02-02T21:08:22.228Z,1.78
2019-02-02T21:11:12.403Z,1.99
2019-02-02T21:14:01.205Z,1.83
2019-02-02T21:16:50.867Z,2.07
2019-02-02T21:19:40.303Z,2.02
2019-02-02T21:22:29.919Z,2.19
2019-02-02T21:25:19.146Z,2.14
2019-02-02T21:28:09.226Z,1.97
2019-02-02T21:30:58.834Z,1.98
2019-02-02T21:33:48.945Z,1.73
2019-02-02T21:36:38.337Z,1.49
2019-02-02T21:39:27.784Z,1.69
2019-02-02T21:42:17.026Z,1.44
2019-02-02T21:45:08.251Z,1.27
2019-02-02T21:47:57.074Z,1.50
2019-02-02T21:50:46.162Z,1.73
2019-02-02T21:53:35.876Z,1.80
2019-02-02T21:56:25.653Z,2.03
2019-02-02T21:59:15.069Z,2.05
2019-02-02T22:02:04.780Z,2.28
2019-02-02T22:04:54.616Z,2.15
2019-02-02T22:07:43.507Z,2.09
2019-02-02T22:10:32.816Z,2.09
2019-02-02T22:13:22.665Z,2.16
2019-02-02T22:16:11.889Z,1.92
2019-02-02T22:19:01.768Z,1.93
2019-02-02T22:21:51.019Z,1.95
2019-02-02T22:24:41.539Z,1.83
2019-02-02T22:27:31.034Z,2.07
2019-02-02T22:30:24.001Z,2.04
2019-02-02T22:33:15.390Z,1.91
2019-02-02T22:36:05.968Z,1.63
2019-02-02T22:38:55.604Z,1.72
2019-02-02T22:41:45.819Z,1.65
2019-02-02T22:44:35.593Z,2.03
2019-02-02T22:47:25.917Z,1.93
2019-02-02T22:50:18.326Z,2.08
2019-02-02T22:53:14.304Z,2.13
2019-02-02T22:56:03.413Z,2.18
2019-02-02T22:58:54.470Z,2.25
2019-02-02T23:01:47.141Z,2.13
2019-02-02T23:04:58.866Z,2.31
2019-02-02T23:08:03.447Z,2.23
2019-02-02T23:11:10.488Z,2.05
2019-02-02T23:14:40.824Z,2.01
2019-02-02T23:17:31.049Z,2.11
2019-02-02T23:20:20.669Z,2.09
2019-02-02T23:23:10.875Z,2.12
2019-02-02T23:26:00.758Z,2.14
2019-02-02T23:28:50.311Z,1.85
2019-02-02T23:31:39.741Z,1.68
2019-02-02T23:34:29.133Z,1.92
2019-02-02T23:37:18.246Z,1.99
2019-02-02T23:40:08.132Z,2.05
2019-02-02T23:42:57.277Z,1.99
2019-02-02T23:45:46.009Z,2.10
2019-02-02T23:48:35.459Z,2.20
2019-02-02T23:51:25.023Z,2.27
2019-02-02T23:54:17.799Z,2.30
2019-02-02T23:57:06.966Z,2.26
2019-02-02T23:59:56.277Z,2.44
